createdAt,value
2019-03-22T00:01:47.932Z,23.20
2019-03-22T00:04:18.120Z,23.70
2019-03-22T00:06:48.301Z,20.68
2019-03-22T00:09:18.809Z,23.73
2019-03-22T00:11:48.996Z,22.67
2019-03-22T00:14:19.463Z,22.58
2019-03-22T00:16:49.730Z,23.18
2019-03-22T00:19:20.259Z,22.97
2019-03-22T00:21:50.455Z,23.50
2019-03-22T00:24:20.628Z,22.98
2019-03-22T00:26:51.044Z,22.70
2019-03-22T00:29:21.225Z,24.60
2019-03-22T00:31:51.427Z,19.73
2019-03-22T00:34:21.631Z,23.12
2019-03-22T00:36:51.884Z,22.05
2019-03-22T00:39:22.067Z,24.40
2019-03-22T00:41:52.249Z,22.67
2019-03-22T00:44:22.425Z,23.90
2019-03-22T00:46:52.588Z,25.23
2019-03-22T00:49:22.790Z,24.63
2019-03-22T00:51:52.951Z,24.67
2019-03-22T00:54:23.699Z,25.50
2019-03-22T00:56:53.894Z,26.10
2019-03-22T00:59:24.202Z,23.30
2019-03-22T01:01:54.385Z,24.18
2019-03-22T01:04:24.576Z,25.75
2019-03-22T01:06:54.778Z,23.98
2019-03-22T01:09:24.963Z,25.35
2019-03-22T01:11:55.137Z,24.40
2019-03-22T01:14:25.311Z,25.05
2019-03-22T01:16:55.492Z,24.57
2019-03-22T01:19:25.692Z,24.87
2019-03-22T01:21:55.841Z,26.70
2019-03-22T01:24:26.044Z,23.52
2019-03-22T01:26:56.203Z,23.85
2019-03-22T01:29:26.502Z,23.22
2019-03-22T01:31:56.668Z,25.02
2019-03-22T01:34:26.880Z,23.70
2019-03-22T01:36:57.104Z,26.43
2019-03-22T01:39:27.295Z,25.75
2019-03-22T01:41:57.495Z,23.90
2019-03-22T01:44:27.677Z,25.40
2019-03-22T01:46:57.997Z,23.67
2019-03-22T01:49:29.296Z,22.52
2019-03-22T01:51:59.560Z,21.80
2019-03-22T01:54:30.238Z,26.65
2019-03-22T01:57:00.536Z,28.52
2019-03-22T01:59:30.720Z,26.33
2019-03-22T02:02:00.889Z,27.53
2019-03-22T02:04:31.088Z,26.93
2019-03-22T02:07:01.264Z,25.80
2019-03-22T02:09:31.477Z,27.83
2019-03-22T02:12:01.732Z,26.75
2019-03-22T02:14:32.004Z,27.25
2019-03-22T02:17:04.188Z,27.40
2019-03-22T02:19:34.431Z,28.62
2019-03-22T02:22:04.804Z,26.57
2019-03-22T02:24:35.130Z,27.20
2019-03-22T02:27:05.447Z,26.63
2019-03-22T02:29:36.667Z,29.05
2019-03-22T02:32:06.976Z,27.27
2019-03-22T02:34:37.243Z,27.55
2019-03-22T02:37:07.492Z,28.53
2019-03-22T02:39:37.863Z,26.15
2019-03-22T02:42:08.301Z,27.83
2019-03-22T02:44:38.572Z,26.68
2019-03-22T02:47:08.881Z,29.65
2019-03-22T02:49:39.083Z,28.38
2019-03-22T02:52:09.318Z,26.43
2019-03-22T02:54:41.347Z,23.38
2019-03-22T02:57:13.179Z,23.43
2019-03-22T02:59:43.483Z,19.98
2019-03-22T03:02:13.895Z,19.45
2019-03-22T03:04:44.144Z,15.77
2019-03-22T03:07:14.557Z,19.47
2019-03-22T03:09:44.845Z,20.33
2019-03-22T03:12:15.116Z,21.00
2019-03-22T03:14:45.565Z,23.70
2019-03-22T03:17:15.886Z,23.40
2019-03-22T03:19:46.123Z,22.43
2019-03-22T03:22:16.472Z,23.42
2019-03-22T03:24:46.724Z,22.58
2019-03-22T03:27:17.842Z,24.67
2019-03-22T03:29:48.081Z,22.93
2019-03-22T03:32:18.349Z,23.77
2019-03-22T03:34:48.613Z,24.47
2019-03-22T03:37:18.903Z,21.17
2019-03-22T03:39:49.242Z,26.27
2019-03-22T03:42:19.550Z,25.00
2019-03-22T03:44:49.803Z,24.15
2019-03-22T03:47:20.168Z,26.47
2019-03-22T03:49:50.418Z,25.90
2019-03-22T03:52:20.823Z,27.87
2019-03-22T03:54:51.397Z,26.50
2019-03-22T03:57:21.646Z,26.63
2019-03-22T03:59:51.897Z,26.00
2019-03-22T04:02:22.249Z,26.10
2019-03-22T04:04:52.606Z,25.60
2019-03-22T04:07:23.833Z,27.20
2019-03-22T04:09:54.099Z,27.23
2019-03-22T04:12:24.349Z,20.77
2019-03-22T04:14:54.601Z,24.33
2019-03-22T04:17:29.409Z,19.65
2019-03-22T04:19:59.736Z,22.97
2019-03-22T04:22:30.026Z,17.23
2019-03-22T04:25:00.520Z,20.80
2019-03-22T04:27:30.920Z,20.77
2019-03-22T04:30:01.351Z,20.23
2019-03-22T04:32:31.674Z,18.87
2019-03-22T04:35:01.928Z,19.37
2019-03-22T04:37:32.178Z,19.73
2019-03-22T04:40:02.431Z,20.57
2019-03-22T04:42:32.669Z,17.20
2019-03-22T04:45:03.160Z,19.50
2019-03-22T04:47:33.646Z,21.02
2019-03-22T04:50:04.350Z,20.73
2019-03-22T04:52:35.048Z,19.13
2019-03-22T04:55:05.676Z,15.85
2019-03-22T04:57:37.074Z,19.90
2019-03-22T05:00:08.616Z,19.20
2019-03-22T05:02:41.112Z,18.23
2019-03-22T05:05:13.204Z,22.87
2019-03-22T05:07:44.611Z,16.13
2019-03-22T05:10:16.625Z,21.80
2019-03-22T05:12:48.511Z,17.17
2019-03-22T05:15:19.731Z,21.40
2019-03-22T05:17:50.440Z,19.47
2019-03-22T05:20:21.835Z,21.47
2019-03-22T05:22:55.259Z,21.23
2019-03-22T05:25:26.879Z,16.07
2019-03-22T05:27:59.867Z,15.53
2019-03-22T05:31:19.052Z,14.47
2019-03-22T05:33:49.308Z,17.83
2019-03-22T05:36:19.620Z,18.87
2019-03-22T05:38:49.917Z,17.43
2019-03-22T05:41:20.158Z,19.20
2019-03-22T05:43:50.400Z,18.97
2019-03-22T05:46:20.737Z,22.93
2019-03-22T05:48:50.984Z,22.10
2019-03-22T05:51:21.240Z,21.90
2019-03-22T05:53:51.547Z,20.20
2019-03-22T05:56:21.877Z,19.20
2019-03-22T05:58:52.148Z,19.33
2019-03-22T06:01:22.596Z,14.90
2019-03-22T06:03:52.816Z,17.27
2019-03-22T06:06:23.059Z,14.90
2019-03-22T06:08:53.546Z,15.00
2019-03-22T06:11:23.948Z,17.67
2019-03-22T06:13:54.492Z,16.10
2019-03-22T06:16:25.044Z,20.40
2019-03-22T06:18:55.284Z,17.33
2019-03-22T06:21:25.624Z,17.27
2019-03-22T06:23:56.295Z,16.30
2019-03-22T06:26:26.725Z,19.83
2019-03-22T06:28:56.973Z,15.10
2019-03-22T06:31:27.253Z,16.30
2019-03-22T06:33:57.596Z,19.13
2019-03-22T06:36:28.191Z,16.70
2019-03-22T06:38:58.420Z,16.03
2019-03-22T06:41:28.857Z,16.90
2019-03-22T06:44:01.381Z,17.87
2019-03-22T06:46:31.704Z,16.53
2019-03-22T06:49:01.948Z,17.20
2019-03-22T06:51:33.264Z,14.67
2019-03-22T06:54:03.576Z,17.00
2019-03-22T06:56:34.395Z,17.43
2019-03-22T06:59:04.712Z,18.48
2019-03-22T07:01:35.108Z,14.43
2019-03-22T07:04:05.487Z,17.37
2019-03-22T07:06:35.828Z,16.30
2019-03-22T07:09:08.992Z,16.60
2019-03-22T07:11:41.711Z,18.35
2019-03-22T07:14:11.664Z,19.83
2019-03-22T07:16:42.988Z,17.13
2019-03-22T07:19:13.310Z,18.73
2019-03-22T07:21:43.808Z,19.42
2019-03-22T07:24:14.062Z,19.23
2019-03-22T07:26:44.320Z,19.45
2019-03-22T07:29:14.557Z,24.40
2019-03-22T07:31:44.809Z,23.62
2019-03-22T07:34:15.112Z,24.45
2019-03-22T07:36:46.957Z,22.62
2019-03-22T07:39:17.496Z,26.00
2019-03-22T07:41:47.776Z,25.72
2019-03-22T07:44:18.028Z,25.00
2019-03-22T07:46:48.444Z,25.10
2019-03-22T07:49:18.683Z,26.30
2019-03-22T07:51:48.959Z,27.70
2019-03-22T07:54:19.237Z,27.85
2019-03-22T07:56:49.647Z,28.60
2019-03-22T07:59:19.941Z,24.80
2019-03-22T08:01:50.309Z,23.83
2019-03-22T08:04:20.629Z,24.15
2019-03-22T08:06:50.882Z,23.92
2019-03-22T08:09:21.219Z,24.25
2019-03-22T08:11:51.488Z,25.70
2019-03-22T08:14:21.729Z,22.87
2019-03-22T08:16:52.207Z,23.42
2019-03-22T08:19:22.568Z,23.70
2019-03-22T08:21:53.087Z,22.20
2019-03-22T08:24:23.315Z,23.27
2019-03-22T08:26:53.602Z,23.02
2019-03-22T08:29:23.856Z,23.32
2019-03-22T08:31:54.977Z,22.17
2019-03-22T08:34:25.281Z,21.85
2019-03-22T08:36:55.682Z,22.52
2019-03-22T08:39:25.937Z,21.50
2019-03-22T08:41:56.177Z,21.68
2019-03-22T08:44:26.499Z,21.17
2019-03-22T08:46:56.789Z,19.90
2019-03-22T08:49:27.311Z,21.33
2019-03-22T08:51:57.730Z,21.45
2019-03-22T08:54:28.001Z,20.25
2019-03-22T08:56:58.237Z,20.60
2019-03-22T08:59:28.525Z,20.43
2019-03-22T09:01:58.767Z,20.52
2019-03-22T09:04:29.085Z,20.05
2019-03-22T09:07:00.423Z,19.82
2019-03-22T09:09:40.918Z,20.92
2019-03-22T09:12:02.697Z,19.00
2019-03-22T09:14:33.034Z,20.68
2019-03-22T09:17:03.355Z,18.80
2019-03-22T09:19:33.597Z,19.52
2019-03-22T09:22:03.928Z,19.57
2019-03-22T09:24:39.294Z,18.17
2019-03-22T09:27:06.155Z,19.27
2019-03-22T09:29:36.506Z,19.32
2019-03-22T09:32:06.848Z,18.25
2019-03-22T09:34:37.110Z,19.50
2019-03-22T09:37:08.985Z,18.62
2019-03-22T09:39:39.446Z,18.40
2019-03-22T09:42:09.861Z,17.87
2019-03-22T09:44:44.639Z,18.37
2019-03-22T09:47:12.280Z,17.98
2019-03-22T09:49:42.740Z,16.73
2019-03-22T09:52:13.094Z,17.82
2019-03-22T09:54:44.431Z,18.12
2019-03-22T09:57:14.652Z,17.55
2019-03-22T09:59:45.045Z,17.95
2019-03-22T10:02:15.335Z,17.07
2019-03-22T10:04:45.591Z,17.77
2019-03-22T10:07:16.044Z,17.23
2019-03-22T10:09:46.372Z,17.42
2019-03-22T10:12:16.621Z,16.62
2019-03-22T10:14:46.919Z,18.35
2019-03-22T11:50:12.732Z,7.85
2019-03-22T11:52:50.139Z,9.33
2019-03-22T12:10:32.824Z,8.13
2019-03-22T12:24:02.653Z,8.08
2019-03-22T12:34:29.275Z,7.50
2019-03-22T12:36:59.528Z,7.72
2019-03-22T12:39:29.760Z,7.85
2019-03-22T13:10:57.541Z,7.17
2019-03-22T13:13:27.787Z,8.15
2019-03-22T13:15:58.019Z,6.95
2019-03-22T13:18:28.263Z,7.08
2019-03-22T13:20:58.513Z,6.10
2019-03-22T13:23:28.772Z,6.87
2019-03-22T15:39:47.163Z,5.15
2019-03-22T15:42:18.667Z,4.85
2019-03-22T15:44:49.315Z,5.53
2019-03-22T15:51:09.436Z,5.78
2019-03-22T15:53:39.803Z,4.40
2019-03-22T15:56:10.112Z,4.90
2019-03-22T15:58:40.329Z,5.05
2019-03-22T16:01:10.659Z,5.47
2019-03-22T16:03:44.352Z,4.83
2019-03-22T16:06:13.000Z,5.37
2019-03-22T16:08:43.331Z,5.15
2019-03-22T16:11:13.586Z,6.00
2019-03-22T16:13:43.802Z,5.28
2019-03-22T16:16:14.508Z,5.30
2019-03-22T16:18:44.794Z,5.53
2019-03-22T16:21:15.115Z,5.80
2019-03-22T16:23:45.348Z,5.35
2019-03-22T16:26:15.744Z,6.03
2019-03-22T16:28:45.962Z,6.37
2019-03-22T16:31:16.282Z,6.12
2019-03-22T16:33:54.026Z,5.35
2019-03-22T16:36:18.468Z,4.67
2019-03-22T16:38:48.781Z,4.40
2019-03-22T16:41:19.011Z,5.40
2019-03-22T16:43:49.231Z,4.75
2019-03-22T16:46:19.523Z,3.92
2019-03-22T16:48:50.770Z,4.30
2019-03-22T16:51:20.995Z,4.03
2019-03-22T16:53:51.231Z,4.00
2019-03-22T16:56:21.448Z,4.30
2019-03-22T16:58:51.676Z,3.65
2019-03-22T17:01:21.996Z,4.80
2019-03-22T17:03:52.334Z,4.95
2019-03-22T17:06:22.638Z,4.53
2019-03-22T17:08:52.868Z,5.12
2019-03-22T17:11:23.098Z,4.35
2019-03-22T17:13:53.348Z,4.75
2019-03-22T17:16:23.661Z,4.25
2019-03-22T17:18:53.953Z,4.47
2019-03-22T17:21:24.177Z,4.42
2019-03-22T17:23:54.443Z,4.03
2019-03-22T17:26:24.667Z,4.58
2019-03-22T17:28:54.903Z,3.22
2019-03-22T17:31:25.138Z,3.75
2019-03-22T17:33:55.364Z,4.65
2019-03-22T17:36:25.587Z,3.87
2019-03-22T17:38:55.901Z,4.22
2019-03-22T17:41:26.140Z,4.40
2019-03-22T17:43:56.439Z,4.12
2019-03-22T17:46:26.747Z,4.08
2019-03-22T17:48:56.975Z,4.97
2019-03-22T17:51:27.225Z,4.78
2019-03-22T17:53:57.479Z,4.47
2019-03-22T17:56:27.692Z,4.42
2019-03-22T17:58:57.915Z,4.22
2019-03-22T18:01:28.192Z,4.30
2019-03-22T18:03:58.424Z,4.03
2019-03-22T18:06:28.668Z,4.17
2019-03-22T18:08:59.968Z,4.50
2019-03-22T18:11:30.196Z,4.17
2019-03-22T18:14:00.445Z,5.33
2019-03-22T18:16:30.658Z,4.92
2019-03-22T18:19:00.912Z,4.55
2019-03-22T18:21:31.208Z,4.25
2019-03-22T18:24:01.445Z,4.45
2019-03-22T18:26:32.631Z,4.22
2019-03-22T18:29:02.923Z,3.92
2019-03-22T18:31:33.164Z,3.70
2019-03-22T18:34:04.672Z,3.92
2019-03-22T18:36:34.896Z,3.55
2019-03-22T18:39:07.004Z,4.05
2019-03-22T18:41:37.224Z,4.15
2019-03-22T18:44:07.575Z,3.70
2019-03-22T18:46:37.827Z,4.45
2019-03-22T18:49:08.162Z,3.77
2019-03-22T18:51:38.419Z,3.90
2019-03-22T18:54:08.778Z,3.20
2019-03-22T18:56:41.928Z,3.95
2019-03-22T18:59:12.158Z,3.62
2019-03-22T19:01:42.388Z,3.55
2019-03-22T19:04:12.608Z,3.95
2019-03-22T19:06:42.844Z,4.08
2019-03-22T19:09:13.128Z,4.50
2019-03-22T19:11:43.669Z,4.95
2019-03-22T19:14:13.895Z,4.80
2019-03-22T19:16:44.130Z,4.15
2019-03-22T19:19:14.475Z,4.28
2019-03-22T19:21:44.765Z,4.85
2019-03-22T19:24:14.993Z,5.20
2019-03-22T19:26:45.279Z,7.28
2019-03-22T19:29:15.539Z,5.40
2019-03-22T19:31:45.859Z,6.08
2019-03-22T19:34:16.095Z,5.35
2019-03-22T19:36:46.349Z,6.42
2019-03-22T19:39:17.642Z,6.85
2019-03-22T19:41:47.903Z,7.75
2019-03-22T19:44:18.120Z,7.90
2019-03-22T19:46:48.472Z,6.97
2019-03-22T19:49:18.698Z,7.53
2019-03-22T19:51:48.954Z,7.25
2019-03-22T19:54:19.180Z,8.75
2019-03-22T19:56:50.182Z,9.98
2019-03-22T19:59:22.064Z,9.83
2019-03-22T20:01:52.396Z,9.33
2019-03-22T20:04:22.699Z,8.53
2019-03-22T20:06:52.969Z,8.58
2019-03-22T20:09:23.200Z,9.15
2019-03-22T20:11:53.482Z,9.50
2019-03-22T20:14:23.663Z,9.53
2019-03-22T20:16:53.911Z,10.48
2019-03-22T20:19:24.134Z,9.48
2019-03-22T20:21:54.449Z,10.90
2019-03-22T20:24:24.711Z,11.35
2019-03-22T20:26:56.029Z,9.75
2019-03-22T20:29:26.322Z,9.15
2019-03-22T20:31:56.662Z,9.28
2019-03-22T20:34:26.931Z,9.93
2019-03-22T20:36:57.249Z,10.00
2019-03-22T20:39:27.476Z,12.03
2019-03-22T20:41:57.727Z,11.22
2019-03-22T20:44:33.826Z,10.70
2019-03-22T20:47:00.239Z,11.05
2019-03-22T20:49:30.536Z,10.95
2019-03-22T20:52:00.799Z,11.10
2019-03-22T20:54:31.184Z,9.25
2019-03-22T20:57:01.441Z,10.32
2019-03-22T20:59:31.687Z,11.08
2019-03-22T21:02:02.046Z,10.98
2019-03-22T21:04:32.292Z,10.80
2019-03-22T21:07:02.563Z,11.20
2019-03-22T21:09:32.927Z,10.82
2019-03-22T21:12:03.997Z,12.00
2019-03-22T21:14:34.433Z,12.80
2019-03-22T21:17:04.750Z,13.25
2019-03-22T21:19:34.981Z,12.40
2019-03-22T21:22:06.400Z,11.45
2019-03-22T21:24:38.357Z,12.88
2019-03-22T21:27:15.533Z,11.68
2019-03-22T21:29:44.514Z,12.80
2019-03-22T21:32:12.580Z,12.58
2019-03-22T21:34:44.157Z,12.58
2019-03-22T21:37:14.819Z,11.55
2019-03-22T21:39:45.063Z,11.60
2019-03-22T21:42:15.323Z,13.03
2019-03-22T21:44:45.609Z,13.78
2019-03-22T21:47:15.956Z,13.70
2019-03-22T21:49:46.292Z,13.70
2019-03-22T21:52:16.540Z,13.08
2019-03-22T21:54:46.833Z,11.57
2019-03-22T21:57:18.133Z,12.70
2019-03-22T21:59:48.411Z,10.85
2019-03-22T22:02:19.007Z,11.63
2019-03-22T22:04:49.244Z,9.50
2019-03-22T22:07:19.455Z,10.82
2019-03-22T22:09:49.755Z,10.43
2019-03-22T22:12:19.984Z,10.58
2019-03-22T22:14:50.226Z,11.12
2019-03-22T22:17:20.503Z,10.03
2019-03-22T22:19:50.847Z,8.93
2019-03-22T22:22:21.068Z,9.18
2019-03-22T22:24:51.310Z,9.03
2019-03-22T22:27:21.535Z,7.97
2019-03-22T22:29:51.766Z,9.45
2019-03-22T22:32:22.087Z,9.35
2019-03-22T22:34:52.319Z,9.63
2019-03-22T22:37:23.703Z,9.75
2019-03-22T22:39:54.012Z,9.93
2019-03-22T22:42:24.296Z,10.45
2019-03-22T22:44:56.733Z,10.28
2019-03-22T22:47:26.948Z,10.13
2019-03-22T22:49:57.190Z,9.45
2019-03-22T22:52:27.391Z,10.58
2019-03-22T22:54:57.748Z,13.43
2019-03-22T22:57:27.963Z,14.85
2019-03-22T22:59:58.271Z,14.03
2019-03-22T23:02:28.598Z,12.33
2019-03-22T23:04:58.832Z,12.20
2019-03-22T23:07:29.130Z,10.18
2019-03-22T23:09:59.373Z,10.80
2019-03-22T23:12:29.608Z,12.13
2019-03-22T23:15:01.309Z,12.05
2019-03-22T23:17:31.803Z,13.18
2019-03-22T23:20:02.155Z,14.00
2019-03-22T23:22:32.400Z,12.43
2019-03-22T23:25:02.643Z,11.50
2019-03-22T23:27:32.908Z,12.40
2019-03-22T23:30:04.228Z,12.53
2019-03-22T23:32:34.534Z,12.82
2019-03-22T23:35:05.289Z,12.93
2019-03-22T23:37:35.608Z,13.83
2019-03-22T23:40:06.978Z,14.93
2019-03-22T23:42:37.447Z,14.35
2019-03-22T23:45:08.643Z,13.65
2019-03-22T23:47:38.970Z,16.73
2019-03-22T23:50:09.950Z,15.72
2019-03-22T23:52:40.215Z,18.02
2019-03-22T23:55:10.523Z,16.07
2019-03-22T23:57:40.876Z,17.32
